createdAt,value
2022-10-11T00:02:17.336Z,98847.41
2022-10-11T00:07:42.298Z,98842.66
2022-10-11T00:13:09.325Z,98855.16
2022-10-11T00:18:34.362Z,98868.66
2022-10-11T00:23:59.314Z,98877.94
2022-10-11T00:29:27.334Z,98877.75
2022-10-11T00:34:51.346Z,98881.13
2022-10-11T00:40:20.330Z,98883.84
2022-10-11T00:46:26.324Z,98883.19
2022-10-11T00:51:59.420Z,98892.84
2022-10-11T00:57:28.345Z,98903.97
2022-10-11T01:02:53.346Z,98910.56
2022-10-11T01:08:22.419Z,98916.94
2022-10-11T01:13:57.377Z,98921.91
2022-10-11T01:19:50.316Z,98921.84
2022-10-11T01:25:38.423Z,98913.19
2022-10-11T01:31:08.334Z,98916.97
2022-10-11T01:42:00.358Z,98928.66
2022-10-11T01:47:27.375Z,98938.00
2022-10-11T01:52:54.375Z,98943.19
2022-10-11T01:58:31.353Z,98948.06
2022-10-11T02:04:07.376Z,98951.22
2022-10-11T02:09:40.366Z,98963.47
2022-10-11T02:15:07.374Z,98965.78
2022-10-11T02:20:37.419Z,98958.97
2022-10-11T02:26:03.740Z,98976.34
2022-10-11T02:31:29.342Z,98969.78
2022-10-11T02:37:08.393Z,98985.28
2022-10-11T02:42:44.360Z,98989.00
2022-10-11T02:48:10.393Z,98988.66
2022-10-11T02:53:39.551Z,99000.44
2022-10-11T02:59:04.413Z,99007.72
2022-10-11T03:04:28.388Z,99020.38
2022-10-11T03:09:56.387Z,99022.38
2022-10-11T03:15:21.418Z,99018.56
2022-10-11T03:20:46.411Z,99025.28
2022-10-11T03:26:13.448Z,99034.66
2022-10-11T03:31:38.422Z,99045.50
2022-10-11T03:37:03.402Z,99054.66
2022-10-11T03:42:38.429Z,99046.75
2022-10-11T03:48:03.417Z,99049.63
2022-10-11T03:53:28.411Z,99057.31
2022-10-11T03:59:08.455Z,99056.19
2022-10-11T04:04:33.518Z,99072.66
2022-10-11T04:09:59.586Z,99081.19
2022-10-11T04:21:26.638Z,99085.03
2022-10-11T04:26:53.016Z,99089.16
2022-10-11T04:32:19.450Z,99097.66
2022-10-11T04:43:12.730Z,99107.25
2022-10-11T04:48:41.582Z,99112.59
2022-10-11T04:54:06.739Z,99118.22
2022-10-11T04:59:39.546Z,99123.00
2022-10-11T05:05:02.537Z,99135.97
2022-10-11T05:10:30.628Z,99141.19
2022-10-11T05:15:55.814Z,99148.09
2022-10-11T05:21:27.509Z,99152.91
2022-10-11T05:26:52.499Z,99154.25
2022-10-11T05:32:20.438Z,99163.44
2022-10-11T05:37:50.585Z,99168.22
2022-10-11T05:43:16.694Z,99171.19
2022-10-11T05:48:40.482Z,99181.09
2022-10-11T05:54:09.515Z,99189.25
2022-10-11T05:59:33.478Z,99187.38
2022-10-11T06:04:58.486Z,99194.84
2022-10-11T06:10:25.591Z,99209.50
2022-10-11T06:15:50.559Z,99225.69
2022-10-11T06:21:17.982Z,99233.63
2022-10-11T06:26:45.930Z,99237.75
2022-10-11T06:32:09.496Z,99246.09
2022-10-11T06:37:34.524Z,99254.16
2022-10-11T06:43:08.639Z,99268.22
2022-10-11T06:48:33.514Z,99267.00
2022-10-11T06:54:02.502Z,99262.69
2022-10-11T06:59:30.543Z,99267.00
2022-10-11T07:04:56.509Z,99279.06
2022-10-11T07:10:21.528Z,99282.72
2022-10-11T07:15:55.547Z,99286.06
2022-10-11T07:21:22.548Z,99284.03
2022-10-11T07:26:52.280Z,99292.06
2022-10-11T07:32:20.542Z,99289.06
2022-10-11T07:37:44.524Z,99301.69
2022-10-11T07:43:17.565Z,99309.59
2022-10-11T07:48:45.567Z,99308.66
2022-10-11T07:54:11.523Z,99316.94
2022-10-11T07:59:38.579Z,99324.31
2022-10-11T08:05:10.558Z,99323.78
2022-10-11T08:10:36.563Z,99330.06
2022-10-11T08:16:01.737Z,99339.19
2022-10-11T08:21:29.952Z,99335.53
2022-10-11T08:26:56.602Z,99337.16
2022-10-11T08:32:24.628Z,99331.97
2022-10-11T08:37:52.616Z,99330.13
2022-10-11T08:43:32.739Z,99325.97
2022-10-11T08:49:02.457Z,99327.97
2022-10-11T08:54:36.574Z,99330.53
2022-10-11T09:00:16.587Z,99319.63
2022-10-11T09:05:46.557Z,99319.31
2022-10-11T09:11:24.569Z,99318.03
2022-10-11T09:17:03.616Z,99316.31
2022-10-11T09:22:35.592Z,99306.72
2022-10-11T09:28:15.614Z,99308.44
2022-10-11T09:33:43.706Z,99320.66
2022-10-11T09:39:15.608Z,99321.66
2022-10-11T09:44:46.626Z,99318.22
2022-10-11T09:50:15.606Z,99314.25
2022-10-11T09:55:43.633Z,99318.47
2022-10-11T10:01:17.683Z,99323.00
2022-10-11T10:06:42.581Z,99315.88
2022-10-11T10:12:06.613Z,99320.44
2022-10-11T10:17:34.593Z,99315.03
2022-10-11T10:23:02.647Z,99317.63
2022-10-11T10:28:30.627Z,99311.31
2022-10-11T10:33:58.663Z,99312.81
2022-10-11T10:39:36.622Z,99304.50
2022-10-11T10:45:11.927Z,99306.00
2022-10-11T10:50:51.635Z,99308.06
2022-10-11T10:56:24.620Z,99308.97
2022-10-11T11:02:15.758Z,99312.94
2022-10-11T11:07:59.656Z,99308.53
2022-10-11T11:13:32.636Z,99305.06
2022-10-11T11:19:04.705Z,99304.28
2022-10-11T11:24:48.642Z,99299.78
2022-10-11T11:30:19.644Z,99286.41
2022-10-11T11:35:51.670Z,99284.47
2022-10-11T11:41:28.654Z,99273.03
2022-10-11T11:46:58.686Z,99275.41
2022-10-11T11:52:29.719Z,99277.25
2022-10-11T11:58:07.722Z,99275.34
2022-10-11T12:03:40.693Z,99280.31
2022-10-11T12:09:11.681Z,99267.00
2022-10-11T12:14:49.674Z,99260.78
2022-10-11T12:20:28.683Z,99261.88
2022-10-11T12:26:02.699Z,99268.38
2022-10-11T12:31:36.703Z,99255.53
2022-10-11T12:37:06.578Z,99253.00
2022-10-11T12:42:47.670Z,99258.13
2022-10-11T12:48:34.875Z,99258.81
2022-10-11T12:54:27.422Z,99252.88
2022-10-11T12:59:55.715Z,99249.28
2022-10-11T13:05:31.735Z,99251.00
2022-10-11T13:10:57.757Z,99243.84
2022-10-11T13:16:27.742Z,99253.41
2022-10-11T13:22:00.994Z,99249.97
2022-10-11T13:27:33.727Z,99249.75
2022-10-11T13:32:58.731Z,99253.69
2022-10-11T13:38:35.734Z,99248.00
2022-10-11T13:44:01.725Z,99245.78
2022-10-11T13:49:46.764Z,99244.94
2022-10-11T13:55:33.747Z,99243.28
2022-10-11T14:01:09.773Z,99233.00
2022-10-11T14:06:48.747Z,99230.41
2022-10-11T14:12:45.729Z,99228.91
2022-10-11T14:18:12.726Z,99227.59
2022-10-11T14:23:36.814Z,99227.03
2022-10-11T14:29:07.784Z,99227.22
2022-10-11T14:34:35.769Z,99224.91
2022-10-11T14:40:01.976Z,99224.97
2022-10-11T14:45:29.745Z,99219.03
2022-10-11T14:51:01.787Z,99218.47
2022-10-11T14:56:26.434Z,99216.72
2022-10-11T15:02:28.797Z,99222.16
2022-10-11T15:07:54.924Z,99220.94
2022-10-11T15:13:19.890Z,99227.66
2022-10-11T15:18:46.795Z,99229.94
2022-10-11T15:29:35.811Z,99230.94
2022-10-11T15:35:03.864Z,99226.75
2022-10-11T15:40:39.804Z,99231.75
2022-10-11T15:46:20.832Z,99226.91
2022-10-11T15:51:49.977Z,99227.44
2022-10-11T15:57:13.806Z,99236.53
2022-10-11T16:02:38.855Z,99235.56
2022-10-11T16:08:05.869Z,99235.03
2022-10-11T16:13:30.822Z,99239.19
2022-10-11T16:18:56.274Z,99239.91
2022-10-11T16:24:23.842Z,99237.09
2022-10-11T16:29:47.817Z,99242.75
2022-10-11T16:35:13.884Z,99249.50
2022-10-11T16:40:44.838Z,99256.59
2022-10-11T16:46:09.865Z,99252.38
2022-10-11T16:51:34.862Z,99259.38
2022-10-11T16:57:02.872Z,99262.50
2022-10-11T17:02:32.674Z,99272.28
2022-10-11T17:07:57.926Z,99264.75
2022-10-11T17:13:25.862Z,99262.97
2022-10-11T17:18:50.897Z,99272.41
2022-10-11T17:24:15.871Z,99268.19
2022-10-11T17:29:44.895Z,99273.03
2022-10-11T17:35:10.867Z,99278.47
2022-10-11T17:40:36.906Z,99273.50
2022-10-11T17:46:13.886Z,99276.75
2022-10-11T17:51:38.909Z,99272.06
2022-10-11T17:57:02.942Z,99277.69
2022-10-11T18:02:30.935Z,99272.44
2022-10-11T18:07:55.917Z,99267.59
2022-10-11T18:13:42.943Z,99261.31
2022-10-11T18:19:23.909Z,99274.16
2022-10-11T18:24:48.903Z,99280.34
2022-10-11T18:30:15.916Z,99272.06
2022-10-11T18:35:42.889Z,99264.78
2022-10-11T18:41:13.872Z,99267.13
2022-10-11T18:46:40.965Z,99264.41
2022-10-11T18:52:09.179Z,99267.91
2022-10-11T18:57:32.892Z,99260.50
2022-10-11T19:02:58.033Z,99257.72
2022-10-11T19:08:24.929Z,99257.72
2022-10-11T19:13:49.938Z,99262.50
2022-10-11T19:19:13.883Z,99259.91
2022-10-11T19:24:43.110Z,99254.69
2022-10-11T19:30:06.926Z,99254.94
2022-10-11T19:35:32.302Z,99253.88
2022-10-11T19:40:59.066Z,99246.72
2022-10-11T19:46:49.780Z,99252.94
2022-10-11T19:52:11.261Z,99253.31
2022-10-11T19:57:38.926Z,99251.38
2022-10-11T20:03:04.241Z,99254.94
2022-10-11T20:08:29.955Z,99262.31
2022-10-11T20:13:57.019Z,99263.03
2022-10-11T20:19:26.171Z,99260.00
2022-10-11T20:24:49.922Z,99261.34
2022-10-11T20:30:20.989Z,99266.00
2022-10-11T20:35:44.966Z,99264.63
2022-10-11T20:41:13.974Z,99272.34
2022-10-11T20:46:43.007Z,99272.34
2022-10-11T20:52:07.977Z,99276.22
2022-10-11T20:57:32.198Z,99274.00
2022-10-11T21:03:01.957Z,99280.84
2022-10-11T21:08:26.023Z,99273.38
2022-10-11T21:13:51.961Z,99269.97
2022-10-11T21:19:18.997Z,99270.44
2022-10-11T21:24:44.178Z,99265.53
2022-10-11T21:30:07.981Z,99269.91
2022-10-11T21:35:35.973Z,99279.16
2022-10-11T21:40:59.998Z,99278.47
2022-10-11T21:46:47.700Z,99279.44
2022-10-11T21:52:15.050Z,99288.94
2022-10-11T21:57:40.074Z,99281.25
2022-10-11T22:03:06.985Z,99290.81
2022-10-11T22:08:35.041Z,99291.38
2022-10-11T22:13:59.055Z,99284.91
2022-10-11T22:19:23.986Z,99293.03
2022-10-11T22:24:51.033Z,99292.28
2022-10-11T22:30:18.020Z,99291.44
2022-10-11T22:35:41.982Z,99292.63
2022-10-11T22:41:10.058Z,99283.00
2022-10-11T22:46:34.044Z,99281.75
2022-10-11T22:51:59.249Z,99280.38
2022-10-11T22:57:31.047Z,99277.38
2022-10-11T23:02:56.034Z,99280.53
2022-10-11T23:08:22.024Z,99279.13
2022-10-11T23:13:50.211Z,99281.91
2022-10-11T23:19:14.020Z,99282.97
2022-10-11T23:24:39.037Z,99272.72
2022-10-11T23:30:06.063Z,99280.22
2022-10-11T23:35:31.032Z,99292.81
2022-10-11T23:40:58.335Z,99301.41
2022-10-11T23:46:26.057Z,99292.22
2022-10-11T23:51:50.056Z,99302.28
2022-10-11T23:57:15.040Z,99306.25
